createdAt,value
2022-08-16T00:01:40.975Z,19.34
2022-08-16T00:04:09.643Z,19.33
2022-08-16T00:06:39.198Z,19.31
2022-08-16T00:09:06.144Z,19.27
2022-08-16T00:11:32.751Z,19.22
2022-08-16T00:13:59.271Z,19.17
2022-08-16T00:17:01.436Z,19.14
2022-08-16T00:19:15.279Z,19.09
2022-08-16T00:21:42.724Z,19.07
2022-08-16T00:24:12.114Z,19.08
2022-08-16T00:26:45.108Z,19.12
2022-08-16T00:29:16.045Z,19.13
2022-08-16T00:31:47.043Z,19.15
2022-08-16T00:34:44.167Z,19.12
2022-08-16T00:37:17.109Z,19.06
2022-08-16T00:39:45.229Z,19.01
2022-08-16T00:42:13.461Z,18.96
2022-08-16T00:44:41.083Z,18.90
2022-08-16T00:47:16.277Z,18.88
2022-08-16T00:49:44.394Z,18.82
2022-08-16T00:52:30.808Z,18.77
2022-08-16T00:54:58.970Z,18.72
2022-08-16T00:57:26.441Z,18.68
2022-08-16T00:59:59.115Z,18.66
2022-08-16T01:02:31.796Z,18.64
2022-08-16T01:05:10.980Z,18.59
2022-08-16T01:07:51.021Z,18.56
2022-08-16T01:10:21.285Z,18.52
2022-08-16T01:13:00.393Z,18.49
2022-08-16T01:15:27.774Z,18.47
2022-08-16T01:17:57.491Z,18.47
2022-08-16T01:20:30.438Z,18.48
2022-08-16T01:23:08.453Z,18.50
2022-08-16T01:25:37.183Z,18.51
2022-08-16T01:28:07.489Z,18.48
2022-08-16T01:30:40.194Z,18.42
2022-08-16T01:33:17.063Z,18.37
2022-08-16T01:35:52.490Z,18.32
2022-08-16T01:38:19.974Z,18.26
2022-08-16T01:40:46.983Z,18.22
2022-08-16T01:43:14.004Z,18.21
2022-08-16T01:45:42.055Z,18.23
2022-08-16T01:48:19.160Z,18.19
2022-08-16T01:51:08.833Z,18.18
2022-08-16T01:53:33.526Z,18.15
2022-08-16T01:56:00.031Z,18.08
2022-08-16T01:58:26.846Z,18.01
2022-08-16T02:00:54.916Z,17.98
2022-08-16T02:03:24.518Z,17.97
2022-08-16T02:05:53.430Z,17.93
2022-08-16T02:08:32.685Z,17.89
2022-08-16T02:10:59.895Z,17.85
2022-08-16T02:13:27.834Z,17.78
2022-08-16T02:15:59.193Z,17.73
2022-08-16T02:18:25.658Z,17.67
2022-08-16T02:20:53.582Z,17.61
2022-08-16T02:23:20.718Z,17.55
2022-08-16T02:25:51.780Z,17.48
2022-08-16T02:28:20.595Z,17.43
2022-08-16T02:30:51.737Z,17.40
2022-08-16T02:33:18.759Z,17.40
2022-08-16T02:35:53.906Z,17.40
2022-08-16T02:38:25.268Z,17.43
2022-08-16T02:40:54.531Z,17.47
2022-08-16T02:43:21.382Z,17.51
2022-08-16T02:45:53.441Z,17.54
2022-08-16T02:48:28.906Z,17.56
2022-08-16T02:51:06.333Z,17.55
2022-08-16T02:53:40.271Z,17.49
2022-08-16T02:56:09.906Z,17.46
2022-08-16T02:58:36.894Z,17.47
2022-08-16T03:01:03.481Z,17.47
2022-08-16T03:04:30.167Z,17.45
2022-08-16T03:06:41.585Z,17.42
2022-08-16T03:09:09.753Z,17.43
2022-08-16T03:11:40.149Z,17.42
2022-08-16T03:14:07.877Z,17.38
2022-08-16T03:16:42.022Z,17.35
2022-08-16T03:19:22.066Z,17.31
2022-08-16T03:21:48.985Z,17.30
2022-08-16T03:24:28.323Z,17.26
2022-08-16T03:26:58.879Z,17.28
2022-08-16T03:29:29.992Z,17.29
2022-08-16T03:31:57.431Z,17.26
2022-08-16T03:34:26.228Z,17.23
2022-08-16T03:36:52.707Z,17.17
2022-08-16T03:39:20.542Z,17.14
2022-08-16T03:41:50.834Z,17.14
2022-08-16T03:44:43.776Z,17.13
2022-08-16T03:47:04.671Z,17.10
2022-08-16T03:49:37.405Z,17.11
2022-08-16T03:52:04.521Z,17.11
2022-08-16T03:54:31.031Z,17.14
2022-08-16T03:56:58.587Z,17.14
2022-08-16T03:59:25.674Z,17.17
2022-08-16T04:01:56.173Z,17.20
2022-08-16T04:04:32.285Z,17.20
2022-08-16T04:07:00.571Z,17.21
2022-08-16T04:09:29.853Z,17.17
2022-08-16T04:11:56.466Z,17.14
2022-08-16T04:14:33.147Z,17.15
2022-08-16T04:17:01.773Z,17.18
2022-08-16T04:19:31.653Z,17.20
2022-08-16T04:22:00.698Z,17.19
2022-08-16T04:24:28.608Z,17.19
2022-08-16T04:26:55.516Z,17.23
2022-08-16T04:29:24.921Z,17.25
2022-08-16T04:31:56.422Z,17.25
2022-08-16T04:34:28.217Z,17.25
2022-08-16T04:36:55.252Z,17.24
2022-08-16T04:39:24.264Z,17.24
2022-08-16T04:41:57.101Z,17.24
2022-08-16T04:44:32.633Z,17.28
2022-08-16T04:47:21.168Z,17.28
2022-08-16T04:49:50.493Z,17.29
2022-08-16T04:52:34.166Z,17.31
2022-08-16T04:55:11.957Z,17.34
2022-08-16T04:57:41.416Z,17.38
2022-08-16T05:00:30.729Z,17.42
2022-08-16T05:02:58.912Z,17.37
2022-08-16T05:05:33.024Z,17.33
2022-08-16T05:08:27.943Z,17.36
2022-08-16T05:10:59.844Z,17.44
2022-08-16T05:13:41.003Z,17.47
2022-08-16T05:16:29.835Z,17.47
2022-08-16T05:18:58.356Z,17.49
2022-08-16T05:21:26.909Z,17.54
2022-08-16T05:23:58.477Z,17.58
2022-08-16T05:26:28.264Z,17.59
2022-08-16T05:28:56.041Z,17.62
2022-08-16T05:31:23.368Z,17.61
2022-08-16T05:33:53.236Z,17.63
2022-08-16T05:36:21.064Z,17.67
2022-08-16T05:38:48.677Z,17.70
2022-08-16T05:41:16.844Z,17.79
2022-08-16T05:43:47.650Z,17.87
2022-08-16T05:46:29.011Z,17.95
2022-08-16T05:49:03.717Z,18.02
2022-08-16T05:51:38.223Z,18.07
2022-08-16T05:54:07.171Z,18.11
2022-08-16T05:56:35.969Z,18.19
2022-08-16T05:59:06.136Z,18.27
2022-08-16T06:01:33.319Z,18.32
2022-08-16T06:04:05.118Z,18.38
2022-08-16T06:06:43.523Z,18.47
2022-08-16T06:09:24.079Z,18.52
2022-08-16T06:11:50.823Z,18.60
2022-08-16T06:14:17.551Z,18.68
2022-08-16T06:19:14.458Z,18.79
2022-08-16T06:21:40.908Z,18.87
2022-08-16T06:24:54.280Z,18.96
2022-08-16T06:26:58.224Z,19.12
2022-08-16T06:29:24.925Z,19.18
2022-08-16T06:31:51.835Z,19.29
2022-08-16T06:34:40.802Z,19.41
2022-08-16T06:37:05.138Z,19.55
2022-08-16T06:39:34.333Z,19.60
2022-08-16T06:42:01.213Z,19.68
2022-08-16T06:44:27.955Z,19.71
2022-08-16T06:46:54.418Z,19.77
2022-08-16T06:49:20.843Z,19.81
2022-08-16T06:51:48.955Z,19.89
2022-08-16T06:54:16.123Z,19.95
2022-08-16T06:56:42.817Z,20.05
2022-08-16T06:59:10.344Z,20.19
2022-08-16T07:01:44.899Z,20.27
2022-08-16T07:04:33.138Z,20.43
2022-08-16T07:07:05.618Z,20.54
2022-08-16T07:09:32.725Z,20.58
2022-08-16T07:12:03.899Z,20.64
2022-08-16T07:14:33.015Z,20.71
2022-08-16T07:16:59.669Z,20.79
2022-08-16T07:19:33.733Z,20.87
2022-08-16T07:22:38.079Z,21.03
2022-08-16T07:25:00.296Z,21.22
2022-08-16T07:27:26.835Z,21.32
2022-08-16T07:29:55.634Z,21.54
2022-08-16T07:32:29.550Z,21.73
2022-08-16T07:34:56.458Z,21.91
2022-08-16T07:37:23.206Z,22.06
2022-08-16T07:39:50.778Z,22.18
2022-08-16T07:42:20.185Z,22.35
2022-08-16T07:44:58.045Z,22.55
2022-08-16T07:47:31.547Z,22.60
2022-08-16T07:49:59.067Z,22.60
2022-08-16T07:52:29.581Z,22.72
2022-08-16T07:54:56.989Z,22.92
2022-08-16T07:57:24.279Z,22.94
2022-08-16T07:59:50.978Z,23.03
2022-08-16T08:02:19.790Z,23.04
2022-08-16T08:04:47.334Z,23.07
2022-08-16T08:07:16.281Z,23.19
2022-08-16T08:09:43.804Z,23.30
2022-08-16T08:12:31.824Z,23.35
2022-08-16T08:14:57.308Z,23.45
2022-08-16T08:17:24.853Z,23.58
2022-08-16T08:20:10.853Z,23.72
2022-08-16T08:22:38.442Z,23.80
2022-08-16T08:25:05.425Z,23.92
2022-08-16T08:27:32.633Z,24.01
2022-08-16T08:30:49.042Z,24.16
2022-08-16T08:32:57.852Z,24.30
2022-08-16T08:35:27.051Z,24.32
2022-08-16T08:37:56.559Z,24.47
2022-08-16T08:40:24.463Z,24.55
2022-08-16T08:42:57.838Z,24.55
2022-08-16T08:45:47.172Z,24.64
2022-08-16T08:48:33.569Z,24.65
2022-08-16T08:51:00.714Z,24.72
2022-08-16T08:53:30.701Z,24.79
2022-08-16T08:55:59.140Z,24.82
2022-08-16T08:58:25.847Z,24.87
2022-08-16T09:01:01.792Z,24.92
2022-08-16T09:03:29.150Z,25.00
2022-08-16T09:05:59.384Z,25.01
2022-08-16T09:08:27.558Z,25.00
2022-08-16T09:10:59.174Z,25.03
2022-08-16T09:13:33.070Z,25.05
2022-08-16T09:16:01.119Z,25.10
2022-08-16T09:18:35.592Z,25.18
2022-08-16T09:21:03.196Z,25.32
2022-08-16T09:23:36.248Z,25.41
2022-08-16T09:26:44.383Z,25.46
2022-08-16T09:29:14.814Z,25.55
2022-08-16T09:31:40.981Z,25.65
2022-08-16T09:34:07.968Z,25.70
2022-08-16T09:36:34.710Z,25.76
2022-08-16T09:39:03.386Z,25.75
2022-08-16T09:41:30.050Z,25.77
2022-08-16T09:43:59.687Z,25.82
2022-08-16T09:46:45.112Z,25.90
2022-08-16T09:49:14.848Z,25.95
2022-08-16T09:51:42.185Z,25.92
2022-08-16T09:54:16.737Z,25.96
2022-08-16T09:56:53.377Z,25.99
2022-08-16T09:59:21.008Z,25.97
2022-08-16T10:01:49.939Z,25.97
2022-08-16T10:04:28.953Z,25.92
2022-08-16T10:07:01.946Z,25.91
2022-08-16T10:09:53.993Z,25.93
2022-08-16T10:12:34.222Z,25.92
2022-08-16T10:15:00.708Z,25.95
2022-08-16T10:17:28.526Z,26.02
2022-08-16T10:19:55.436Z,26.11
2022-08-16T10:22:23.014Z,26.20
2022-08-16T10:24:56.098Z,26.23
2022-08-16T10:27:29.701Z,26.23
2022-08-16T10:30:00.408Z,26.30
2022-08-16T10:32:33.099Z,26.33
2022-08-16T10:34:59.865Z,26.38
2022-08-16T10:37:32.833Z,26.43
2022-08-16T10:40:29.133Z,26.43
2022-08-16T10:43:00.092Z,26.45
2022-08-16T10:45:27.829Z,26.47
2022-08-16T10:48:00.457Z,26.53
2022-08-16T10:50:29.269Z,26.58
2022-08-16T10:52:59.309Z,26.64
2022-08-16T10:55:44.842Z,26.66
2022-08-16T10:58:13.226Z,26.69
2022-08-16T11:00:40.833Z,26.73
2022-08-16T11:03:42.544Z,26.79
2022-08-16T11:06:05.961Z,26.80
2022-08-16T11:08:36.160Z,26.80
2022-08-16T11:11:06.751Z,26.74
2022-08-16T11:16:26.922Z,26.83
2022-08-16T11:19:05.231Z,26.83
2022-08-16T11:22:22.878Z,26.79
2022-08-16T11:24:39.582Z,26.85
2022-08-16T11:27:26.904Z,26.95
2022-08-16T11:29:55.666Z,27.08
2022-08-16T11:32:31.277Z,27.08
2022-08-16T11:35:14.062Z,27.10
2022-08-16T11:40:34.104Z,27.60
2022-08-16T11:43:04.212Z,27.72
2022-08-16T11:45:31.541Z,27.82
2022-08-16T11:48:01.112Z,27.94
2022-08-16T11:50:27.659Z,27.89
2022-08-16T11:52:54.094Z,27.89
2022-08-16T11:55:21.196Z,27.93
2022-08-16T11:57:56.276Z,27.90
2022-08-16T12:00:33.842Z,27.97
2022-08-16T12:03:10.482Z,27.99
2022-08-16T12:05:38.634Z,28.07
2022-08-16T12:08:06.660Z,28.18
2022-08-16T12:10:34.568Z,28.24
2022-08-16T12:13:02.715Z,28.22
2022-08-16T12:15:31.053Z,28.24
2022-08-16T12:17:57.648Z,28.35
2022-08-16T12:20:29.927Z,28.40
2022-08-16T12:22:56.680Z,28.47
2022-08-16T12:25:27.136Z,28.47
2022-08-16T12:27:54.541Z,28.39
2022-08-16T12:30:32.307Z,28.39
2022-08-16T12:33:02.921Z,28.45
2022-08-16T12:35:30.574Z,28.52
2022-08-16T12:37:57.689Z,28.54
2022-08-16T12:40:29.291Z,28.45
2022-08-16T12:42:59.057Z,28.41
2022-08-16T12:45:26.495Z,28.49
2022-08-16T12:48:32.847Z,28.54
2022-08-16T12:50:58.626Z,28.50
2022-08-16T12:53:31.967Z,28.38
2022-08-16T12:55:58.838Z,28.38
2022-08-16T12:58:49.665Z,28.39
2022-08-16T13:01:12.345Z,28.25
2022-08-16T13:03:41.122Z,28.15
2022-08-16T13:06:08.277Z,28.28
2022-08-16T13:08:34.796Z,28.44
2022-08-16T13:11:04.396Z,28.57
2022-08-16T13:13:31.600Z,28.62
2022-08-16T13:16:02.203Z,28.65
2022-08-16T13:18:34.696Z,28.68
2022-08-16T13:21:06.421Z,28.49
2022-08-16T13:23:33.362Z,28.44
2022-08-16T13:26:02.251Z,28.47
2022-08-16T13:28:28.682Z,28.51
2022-08-16T13:30:56.205Z,28.56
2022-08-16T13:33:29.875Z,28.68
2022-08-16T13:35:58.435Z,28.61
2022-08-16T13:38:26.118Z,28.49
2022-08-16T13:40:55.954Z,28.48
2022-08-16T13:43:23.382Z,28.42
2022-08-16T13:45:50.499Z,28.32
2022-08-16T13:48:21.908Z,28.38
2022-08-16T13:50:52.628Z,28.41
2022-08-16T13:53:19.358Z,28.28
2022-08-16T13:55:57.870Z,28.20
2022-08-16T13:58:37.265Z,28.22
2022-08-16T14:01:12.572Z,28.32
2022-08-16T14:03:39.782Z,28.38
2022-08-16T14:06:07.220Z,28.39
2022-08-16T14:08:37.638Z,28.43
2022-08-16T14:11:12.166Z,28.46
2022-08-16T14:13:38.886Z,28.49
2022-08-16T14:16:08.175Z,28.39
2022-08-16T14:18:50.141Z,28.42
2022-08-16T14:21:19.106Z,28.42
2022-08-16T14:23:48.627Z,28.45
2022-08-16T14:26:15.208Z,28.38
2022-08-16T14:28:41.682Z,28.20
2022-08-16T14:31:09.432Z,27.74
2022-08-16T14:33:36.174Z,27.33
2022-08-16T14:36:02.659Z,26.96
2022-08-16T14:38:29.707Z,26.80
2022-08-16T14:41:04.114Z,26.78
2022-08-16T14:43:33.484Z,26.73
2022-08-16T14:46:01.066Z,26.72
2022-08-16T14:48:28.308Z,26.57
2022-08-16T14:50:55.705Z,26.49
2022-08-16T14:53:23.328Z,26.54
2022-08-16T14:55:49.777Z,26.48
2022-08-16T14:58:19.511Z,26.29
2022-08-16T15:00:47.804Z,26.11
2022-08-16T15:03:17.384Z,25.95
2022-08-16T15:05:44.301Z,25.93
2022-08-16T15:08:10.762Z,25.74
2022-08-16T15:10:37.497Z,25.65
2022-08-16T15:13:07.109Z,25.64
2022-08-16T15:15:37.326Z,25.61
2022-08-16T15:18:04.588Z,25.68
2022-08-16T15:20:33.562Z,25.67
2022-08-16T15:23:01.401Z,25.61
2022-08-16T15:25:30.039Z,25.52
2022-08-16T15:27:57.013Z,25.49
2022-08-16T15:30:56.572Z,25.47
2022-08-16T15:33:12.914Z,25.49
2022-08-16T15:35:40.104Z,25.53
2022-08-16T15:38:08.946Z,25.49
2022-08-16T15:40:37.102Z,25.49
2022-08-16T15:43:23.441Z,25.48
2022-08-16T15:46:54.091Z,25.52
2022-08-16T15:49:05.279Z,25.54
2022-08-16T15:51:33.525Z,25.56
2022-08-16T15:54:29.237Z,25.54
2022-08-16T15:56:51.451Z,25.52
2022-08-16T15:59:19.172Z,25.52
2022-08-16T16:01:46.610Z,25.51
2022-08-16T16:04:14.969Z,25.52
2022-08-16T16:06:49.348Z,25.56
2022-08-16T16:09:36.570Z,25.70
2022-08-16T16:12:16.368Z,25.82
2022-08-16T16:14:51.254Z,25.92
2022-08-16T16:17:17.714Z,25.98
2022-08-16T16:19:44.162Z,25.99
2022-08-16T16:22:10.831Z,26.01
2022-08-16T16:24:39.922Z,26.08
2022-08-16T16:27:06.605Z,26.10
2022-08-16T16:29:37.188Z,26.14
2022-08-16T16:32:07.679Z,26.10
2022-08-16T16:34:35.522Z,26.13
2022-08-16T16:37:02.667Z,26.16
2022-08-16T16:39:32.540Z,26.16
2022-08-16T16:41:59.990Z,26.14
2022-08-16T16:44:33.676Z,26.14
2022-08-16T16:47:02.874Z,26.11
2022-08-16T16:49:29.347Z,26.06
2022-08-16T16:52:04.046Z,25.98
2022-08-16T16:54:35.605Z,25.94
2022-08-16T16:57:02.365Z,25.88
2022-08-16T16:59:29.147Z,25.81
2022-08-16T17:02:41.406Z,25.73
2022-08-16T17:04:45.861Z,25.56
2022-08-16T17:07:13.874Z,25.51
2022-08-16T17:09:41.038Z,25.44
2022-08-16T17:12:08.988Z,25.34
2022-08-16T17:14:35.515Z,25.24
2022-08-16T17:17:09.251Z,25.18
2022-08-16T17:19:40.324Z,25.06
2022-08-16T17:22:14.352Z,24.78
2022-08-16T17:24:45.159Z,24.72
2022-08-16T17:40:40.312Z,25.04
2022-08-16T17:43:15.030Z,24.83
2022-08-16T17:45:42.851Z,24.73
2022-08-16T17:48:09.669Z,24.59
2022-08-16T17:50:37.534Z,24.41
2022-08-16T17:53:05.047Z,24.27
2022-08-16T17:55:36.583Z,24.16
2022-08-16T17:58:09.874Z,24.01
2022-08-16T18:00:52.303Z,23.84
2022-08-16T18:04:03.219Z,23.79
2022-08-16T18:06:17.807Z,23.72
2022-08-16T18:11:35.332Z,23.45
2022-08-16T18:14:01.904Z,23.32
2022-08-16T18:16:28.560Z,23.24
2022-08-16T18:18:55.147Z,23.22
2022-08-16T18:21:40.841Z,23.23
2022-08-16T18:24:08.669Z,23.17
2022-08-16T18:26:35.672Z,23.08
2022-08-16T18:29:02.287Z,23.00
2022-08-16T18:31:28.817Z,22.91
2022-08-16T18:33:55.701Z,22.82
2022-08-16T18:36:23.357Z,22.72
2022-08-16T18:38:51.438Z,22.61
2022-08-16T18:41:19.539Z,22.54
2022-08-16T18:44:23.135Z,22.43
2022-08-16T18:46:32.706Z,22.34
2022-08-16T18:48:59.484Z,22.24
2022-08-16T18:51:26.033Z,22.18
2022-08-16T18:53:53.365Z,22.19
2022-08-16T18:56:19.950Z,22.12
2022-08-16T18:58:46.506Z,22.07
2022-08-16T19:01:13.213Z,22.00
2022-08-16T19:03:42.200Z,21.94
2022-08-16T19:06:11.938Z,21.81
2022-08-16T19:08:42.146Z,21.76
2022-08-16T19:11:14.022Z,21.66
2022-08-16T19:13:45.541Z,21.55
2022-08-16T19:16:13.593Z,21.51
2022-08-16T19:18:40.999Z,21.48
2022-08-16T19:21:09.759Z,21.37
2022-08-16T19:23:37.423Z,21.29
2022-08-16T19:26:20.243Z,21.24
2022-08-16T19:28:59.059Z,21.12
2022-08-16T19:31:32.944Z,21.11
2022-08-16T19:34:00.818Z,21.04
2022-08-16T19:36:36.136Z,20.99
2022-08-16T19:39:09.217Z,20.96
2022-08-16T19:41:38.625Z,20.91
2022-08-16T19:44:06.020Z,20.87
2022-08-16T19:46:33.117Z,20.80
2022-08-16T19:48:59.817Z,20.75
2022-08-16T19:51:26.498Z,20.75
2022-08-16T19:53:53.054Z,20.73
2022-08-16T19:56:22.987Z,20.72
2022-08-16T19:59:16.241Z,20.64
2022-08-16T20:01:41.890Z,20.60
2022-08-16T20:04:12.291Z,20.54
2022-08-16T20:06:39.785Z,20.50
2022-08-16T20:09:06.895Z,20.46
2022-08-16T20:11:34.882Z,20.39
2022-08-16T20:14:01.943Z,20.36
2022-08-16T20:16:28.503Z,20.33
2022-08-16T20:18:55.032Z,20.30
2022-08-16T20:21:21.725Z,20.29
2022-08-16T20:23:48.290Z,20.23
2022-08-16T20:26:14.837Z,20.18
2022-08-16T20:28:54.301Z,20.19
2022-08-16T20:31:25.841Z,20.12
2022-08-16T20:33:54.234Z,20.07
2022-08-16T20:36:20.945Z,20.06
2022-08-16T20:38:48.447Z,20.04
2022-08-16T20:41:16.681Z,20.00
2022-08-16T20:43:45.525Z,19.95
2022-08-16T20:46:13.603Z,19.92
2022-08-16T20:48:40.213Z,19.89
2022-08-16T20:51:10.611Z,19.86
2022-08-16T20:53:42.359Z,19.82
2022-08-16T20:56:10.747Z,19.81
2022-08-16T20:58:38.307Z,19.81
2022-08-16T21:01:05.868Z,19.82
2022-08-16T21:03:32.760Z,19.87
2022-08-16T21:06:02.031Z,19.91
2022-08-16T21:08:51.551Z,19.93
2022-08-16T21:11:16.335Z,19.95
2022-08-16T21:13:43.163Z,19.95
2022-08-16T21:16:10.290Z,19.90
2022-08-16T21:18:36.871Z,19.87
2022-08-16T21:21:03.519Z,19.88
2022-08-16T21:23:30.123Z,19.88
2022-08-16T21:25:58.794Z,19.88
2022-08-16T21:28:40.239Z,19.83
2022-08-16T21:31:13.327Z,19.79
2022-08-16T21:33:40.905Z,19.75
2022-08-16T21:36:08.060Z,19.77
2022-08-16T21:38:34.618Z,19.76
2022-08-16T21:41:03.246Z,19.75
2022-08-16T21:43:33.507Z,19.70
2022-08-16T21:46:05.441Z,19.58
2022-08-16T21:48:34.983Z,19.55
2022-08-16T21:51:11.099Z,19.45
2022-08-16T21:53:38.382Z,19.47
2022-08-16T21:56:06.016Z,19.50
2022-08-16T21:58:32.721Z,19.55
2022-08-16T22:01:00.996Z,19.56
2022-08-16T22:03:27.998Z,19.54
2022-08-16T22:06:12.154Z,19.49
2022-08-16T22:08:49.323Z,19.46
2022-08-16T22:11:17.875Z,19.41
2022-08-16T22:13:51.501Z,19.36
2022-08-16T22:16:33.926Z,19.36
2022-08-16T22:19:01.236Z,19.36
2022-08-16T22:21:28.879Z,19.37
2022-08-16T22:23:57.670Z,19.36
2022-08-16T22:26:40.906Z,19.32
2022-08-16T22:29:12.913Z,19.30
2022-08-16T22:31:40.892Z,19.24
2022-08-16T22:34:08.966Z,19.21
2022-08-16T22:36:36.132Z,19.15
2022-08-16T22:39:06.983Z,19.12
2022-08-16T22:41:35.157Z,19.10
2022-08-16T22:44:04.587Z,19.09
2022-08-16T22:46:33.259Z,19.09
2022-08-16T22:48:59.766Z,19.06
2022-08-16T22:51:28.374Z,19.05
2022-08-16T22:53:56.683Z,19.01
2022-08-16T22:56:24.419Z,18.99
2022-08-16T22:58:51.057Z,19.00
2022-08-16T23:01:19.547Z,19.02
2022-08-16T23:03:46.210Z,19.00
2022-08-16T23:06:13.117Z,18.95
2022-08-16T23:08:41.617Z,18.88
2022-08-16T23:11:11.388Z,18.84
2022-08-16T23:13:51.530Z,18.79
2022-08-16T23:16:32.177Z,18.76
2022-08-16T23:19:08.016Z,18.77
2022-08-16T23:21:37.409Z,18.78
2022-08-16T23:24:05.362Z,18.75
2022-08-16T23:26:44.498Z,18.69
2022-08-16T23:29:23.665Z,18.64
2022-08-16T23:31:58.102Z,18.63
2022-08-16T23:34:26.913Z,18.59
2022-08-16T23:36:53.735Z,18.55
2022-08-16T23:39:20.304Z,18.52
2022-08-16T23:41:46.853Z,18.48
2022-08-16T23:44:55.358Z,18.49
2022-08-16T23:47:00.023Z,18.52
2022-08-16T23:49:59.216Z,18.52
2022-08-16T23:52:13.146Z,18.47
2022-08-16T23:54:39.670Z,18.44
2022-08-16T23:57:06.414Z,18.36
2022-08-16T23:59:52.184Z,18.30
